sensor_id;sensor_type;location;lat;lon;timestamp;P1;durP1;ratioP1;P2;durP2;ratioP2
12135;SDS011;6131;56.420;15.548;2022-09-02T00:00:03;2.70;;;0.70;;
12135;SDS011;6131;56.420;15.548;2022-09-02T00:02:32;1.03;;;0.60;;
12135;SDS011;6131;56.420;15.548;2022-09-02T00:04:58;0.90;;;0.70;;
12135;SDS011;6131;56.420;15.548;2022-09-02T00:07:24;3.90;;;0.60;;
12135;SDS011;6131;56.420;15.548;2022-09-02T00:09:50;0.60;;;0.60;;
12135;SDS011;6131;56.420;15.548;2022-09-02T00:12:16;0.70;;;0.70;;
12135;SDS011;6131;56.420;15.548;2022-09-02T00:14:42;0.80;;;0.70;;
12135;SDS011;6131;56.420;15.548;2022-09-02T00:17:08;0.83;;;0.60;;
12135;SDS011;6131;56.420;15.548;2022-09-02T00:19:34;2.00;;;0.60;;
12135;SDS011;6131;56.420;15.548;2022-09-02T00:22:02;0.87;;;0.67;;
12135;SDS011;6131;56.420;15.548;2022-09-02T00:24:28;2.20;;;0.70;;
12135;SDS011;6131;56.420;15.548;2022-09-02T00:26:55;0.77;;;0.50;;
12135;SDS011;6131;56.420;15.548;2022-09-02T00:29:21;1.50;;;0.90;;
12135;SDS011;6131;56.420;15.548;2022-09-02T00:31:47;0.50;;;0.50;;
12135;SDS011;6131;56.420;15.548;2022-09-02T00:34:13;1.57;;;0.70;;
12135;SDS011;6131;56.420;15.548;2022-09-02T00:36:39;0.87;;;0.70;;
12135;SDS011;6131;56.420;15.548;2022-09-02T00:39:05;0.80;;;0.70;;
12135;SDS011;6131;56.420;15.548;2022-09-02T00:41:32;2.10;;;0.97;;
12135;SDS011;6131;56.420;15.548;2022-09-02T00:44:03;0.87;;;0.70;;
12135;SDS011;6131;56.420;15.548;2022-09-02T00:46:31;0.70;;;0.60;;
12135;SDS011;6131;56.420;15.548;2022-09-02T00:48:58;0.93;;;0.60;;
12135;SDS011;6131;56.420;15.548;2022-09-02T00:51:27;1.77;;;0.63;;
12135;SDS011;6131;56.420;15.548;2022-09-02T00:53:54;3.67;;;0.80;;
12135;SDS011;6131;56.420;15.548;2022-09-02T00:56:26;0.83;;;0.67;;
12135;SDS011;6131;56.420;15.548;2022-09-02T00:58:52;0.70;;;0.63;;
12135;SDS011;6131;56.420;15.548;2022-09-02T01:04:23;1.03;;;0.60;;
12135;SDS011;6131;56.420;15.548;2022-09-02T01:06:50;0.70;;;0.70;;
12135;SDS011;6131;56.420;15.548;2022-09-02T01:09:17;0.70;;;0.70;;
12135;SDS011;6131;56.420;15.548;2022-09-02T01:11:45;1.17;;;0.70;;
12135;SDS011;6131;56.420;15.548;2022-09-02T01:14:12;2.70;;;0.70;;
12135;SDS011;6131;56.420;15.548;2022-09-02T01:16:47;2.57;;;0.90;;
12135;SDS011;6131;56.420;15.548;2022-09-02T01:19:19;1.10;;;0.70;;
12135;SDS011;6131;56.420;15.548;2022-09-02T01:21:48;2.03;;;0.70;;
12135;SDS011;6131;56.420;15.548;2022-09-02T01:24:14;0.63;;;0.60;;
12135;SDS011;6131;56.420;15.548;2022-09-02T01:26:40;1.30;;;0.70;;
12135;SDS011;6131;56.420;15.548;2022-09-02T01:29:06;0.90;;;0.70;;
12135;SDS011;6131;56.420;15.548;2022-09-02T01:31:33;1.00;;;0.60;;
12135;SDS011;6131;56.420;15.548;2022-09-02T01:33:59;0.70;;;0.70;;
12135;SDS011;6131;56.420;15.548;2022-09-02T01:36:25;1.13;;;0.70;;
12135;SDS011;6131;56.420;15.548;2022-09-02T01:38:51;0.70;;;0.60;;
12135;SDS011;6131;56.420;15.548;2022-09-02T01:41:17;0.90;;;0.77;;
12135;SDS011;6131;56.420;15.548;2022-09-02T01:43:43;0.60;;;0.60;;
12135;SDS011;6131;56.420;15.548;2022-09-02T01:46:09;0.60;;;0.60;;
12135;SDS011;6131;56.420;15.548;2022-09-02T01:48:35;1.73;;;0.80;;
12135;SDS011;6131;56.420;15.548;2022-09-02T01:51:01;1.30;;;0.80;;
12135;SDS011;6131;56.420;15.548;2022-09-02T01:53:28;2.90;;;0.70;;
12135;SDS011;6131;56.420;15.548;2022-09-02T01:55:54;0.80;;;0.60;;
12135;SDS011;6131;56.420;15.548;2022-09-02T01:58:21;0.70;;;0.63;;
12135;SDS011;6131;56.420;15.548;2022-09-02T02:00:47;2.03;;;0.70;;
12135;SDS011;6131;56.420;15.548;2022-09-02T02:03:13;0.60;;;0.57;;
12135;SDS011;6131;56.420;15.548;2022-09-02T02:05:39;1.10;;;0.70;;
12135;SDS011;6131;56.420;15.548;2022-09-02T02:08:06;0.73;;;0.73;;
12135;SDS011;6131;56.420;15.548;2022-09-02T02:10:32;1.63;;;0.80;;
12135;SDS011;6131;56.420;15.548;2022-09-02T02:12:58;1.60;;;0.80;;
12135;SDS011;6131;56.420;15.548;2022-09-02T02:15:25;0.80;;;0.70;;
12135;SDS011;6131;56.420;15.548;2022-09-02T02:17:51;1.93;;;0.70;;
12135;SDS011;6131;56.420;15.548;2022-09-02T02:20:18;0.70;;;0.70;;
12135;SDS011;6131;56.420;15.548;2022-09-02T02:22:44;0.70;;;0.70;;
12135;SDS011;6131;56.420;15.548;2022-09-02T02:25:11;0.90;;;0.70;;
12135;SDS011;6131;56.420;15.548;2022-09-02T02:27:38;0.70;;;0.70;;
12135;SDS011;6131;56.420;15.548;2022-09-02T02:30:05;1.00;;;0.80;;
12135;SDS011;6131;56.420;15.548;2022-09-02T02:32:32;1.10;;;0.80;;
12135;SDS011;6131;56.420;15.548;2022-09-02T02:34:58;0.90;;;0.70;;
12135;SDS011;6131;56.420;15.548;2022-09-02T02:37:24;0.90;;;0.80;;
12135;SDS011;6131;56.420;15.548;2022-09-02T02:39:50;2.67;;;0.80;;
12135;SDS011;6131;56.420;15.548;2022-09-02T02:42:16;2.93;;;0.90;;
12135;SDS011;6131;56.420;15.548;2022-09-02T02:44:42;1.37;;;0.80;;
12135;SDS011;6131;56.420;15.548;2022-09-02T02:47:08;1.10;;;0.70;;
12135;SDS011;6131;56.420;15.548;2022-09-02T02:49:38;0.60;;;0.60;;
12135;SDS011;6131;56.420;15.548;2022-09-02T02:52:04;0.73;;;0.70;;
12135;SDS011;6131;56.420;15.548;2022-09-02T02:54:31;1.87;;;0.80;;
12135;SDS011;6131;56.420;15.548;2022-09-02T02:56:57;1.33;;;0.80;;
12135;SDS011;6131;56.420;15.548;2022-09-02T02:59:23;1.87;;;0.70;;
12135;SDS011;6131;56.420;15.548;2022-09-02T03:01:50;0.90;;;0.80;;
12135;SDS011;6131;56.420;15.548;2022-09-02T03:04:16;1.10;;;0.67;;
12135;SDS011;6131;56.420;15.548;2022-09-02T03:06:42;0.60;;;0.60;;
12135;SDS011;6131;56.420;15.548;2022-09-02T03:09:08;1.33;;;0.80;;
12135;SDS011;6131;56.420;15.548;2022-09-02T03:11:34;0.83;;;0.67;;
12135;SDS011;6131;56.420;15.548;2022-09-02T03:14:00;0.70;;;0.63;;
12135;SDS011;6131;56.420;15.548;2022-09-02T03:16:26;1.00;;;0.67;;
12135;SDS011;6131;56.420;15.548;2022-09-02T03:18:52;0.87;;;0.70;;
12135;SDS011;6131;56.420;15.548;2022-09-02T03:21:18;0.97;;;0.60;;
12135;SDS011;6131;56.420;15.548;2022-09-02T03:23:44;0.60;;;0.60;;
12135;SDS011;6131;56.420;15.548;2022-09-02T03:26:11;0.70;;;0.70;;
12135;SDS011;6131;56.420;15.548;2022-09-02T03:28:39;0.80;;;0.80;;
12135;SDS011;6131;56.420;15.548;2022-09-02T03:31:05;0.80;;;0.70;;
12135;SDS011;6131;56.420;15.548;2022-09-02T03:33:32;1.10;;;0.60;;
12135;SDS011;6131;56.420;15.548;2022-09-02T03:35:58;1.30;;;0.60;;
12135;SDS011;6131;56.420;15.548;2022-09-02T03:38:24;2.50;;;0.77;;
12135;SDS011;6131;56.420;15.548;2022-09-02T03:40:50;1.17;;;0.70;;
12135;SDS011;6131;56.420;15.548;2022-09-02T03:43:16;0.90;;;0.80;;
12135;SDS011;6131;56.420;15.548;2022-09-02T03:45:42;0.70;;;0.60;;
12135;SDS011;6131;56.420;15.548;2022-09-02T03:48:10;0.80;;;0.70;;
12135;SDS011;6131;56.420;15.548;2022-09-02T03:50:38;0.90;;;0.73;;
12135;SDS011;6131;56.420;15.548;2022-09-02T03:53:05;1.20;;;1.00;;
12135;SDS011;6131;56.420;15.548;2022-09-02T03:55:31;1.20;;;1.00;;
12135;SDS011;6131;56.420;15.548;2022-09-02T03:57:57;1.10;;;1.00;;
12135;SDS011;6131;56.420;15.548;2022-09-02T04:00:24;1.33;;;0.70;;
12135;SDS011;6131;56.420;15.548;2022-09-02T04:02:55;0.90;;;0.70;;
12135;SDS011;6131;56.420;15.548;2022-09-02T04:05:22;2.67;;;0.80;;
12135;SDS011;6131;56.420;15.548;2022-09-02T04:07:48;0.77;;;0.70;;
12135;SDS011;6131;56.420;15.548;2022-09-02T04:10:15;1.10;;;0.63;;
12135;SDS011;6131;56.420;15.548;2022-09-02T04:12:41;1.40;;;0.83;;
12135;SDS011;6131;56.420;15.548;2022-09-02T04:15:08;0.70;;;0.70;;
12135;SDS011;6131;56.420;15.548;2022-09-02T04:17:35;0.80;;;0.70;;
12135;SDS011;6131;56.420;15.548;2022-09-02T04:20:02;1.20;;;0.80;;
12135;SDS011;6131;56.420;15.548;2022-09-02T04:22:29;1.53;;;0.90;;
12135;SDS011;6131;56.420;15.548;2022-09-02T04:24:55;1.63;;;0.87;;
12135;SDS011;6131;56.420;15.548;2022-09-02T04:27:21;1.63;;;0.70;;
12135;SDS011;6131;56.420;15.548;2022-09-02T04:29:46;2.30;;;0.80;;
12135;SDS011;6131;56.420;15.548;2022-09-02T04:32:12;0.87;;;0.70;;
12135;SDS011;6131;56.420;15.548;2022-09-02T04:34:38;1.47;;;0.77;;
12135;SDS011;6131;56.420;15.548;2022-09-02T04:37:04;1.50;;;0.73;;
12135;SDS011;6131;56.420;15.548;2022-09-02T04:39:30;1.50;;;0.80;;
12135;SDS011;6131;56.420;15.548;2022-09-02T04:41:56;1.57;;;0.60;;
12135;SDS011;6131;56.420;15.548;2022-09-02T04:44:23;1.37;;;0.80;;
12135;SDS011;6131;56.420;15.548;2022-09-02T04:46:49;1.50;;;0.80;;
12135;SDS011;6131;56.420;15.548;2022-09-02T04:49:15;1.07;;;0.90;;
12135;SDS011;6131;56.420;15.548;2022-09-02T04:51:41;2.53;;;0.80;;
12135;SDS011;6131;56.420;15.548;2022-09-02T04:54:07;0.80;;;0.73;;
12135;SDS011;6131;56.420;15.548;2022-09-02T04:56:34;0.70;;;0.70;;
12135;SDS011;6131;56.420;15.548;2022-09-02T04:59:00;2.17;;;1.10;;
12135;SDS011;6131;56.420;15.548;2022-09-02T05:01:28;1.77;;;0.90;;
12135;SDS011;6131;56.420;15.548;2022-09-02T05:03:56;2.77;;;0.70;;
12135;SDS011;6131;56.420;15.548;2022-09-02T05:06:23;1.10;;;0.70;;
12135;SDS011;6131;56.420;15.548;2022-09-02T05:08:51;1.83;;;0.70;;
12135;SDS011;6131;56.420;15.548;2022-09-02T05:11:19;1.07;;;0.80;;
12135;SDS011;6131;56.420;15.548;2022-09-02T05:13:46;1.73;;;0.60;;
12135;SDS011;6131;56.420;15.548;2022-09-02T05:16:14;1.63;;;0.70;;
12135;SDS011;6131;56.420;15.548;2022-09-02T05:18:40;1.57;;;0.80;;
12135;SDS011;6131;56.420;15.548;2022-09-02T05:21:06;0.60;;;0.60;;
12135;SDS011;6131;56.420;15.548;2022-09-02T05:23:33;1.53;;;0.63;;
12135;SDS011;6131;56.420;15.548;2022-09-02T05:26:02;0.70;;;0.70;;
12135;SDS011;6131;56.420;15.548;2022-09-02T05:28:28;1.00;;;0.60;;
12135;SDS011;6131;56.420;15.548;2022-09-02T05:30:54;0.70;;;0.60;;
12135;SDS011;6131;56.420;15.548;2022-09-02T05:33:20;0.77;;;0.70;;
12135;SDS011;6131;56.420;15.548;2022-09-02T05:35:47;1.43;;;0.80;;
12135;SDS011;6131;56.420;15.548;2022-09-02T05:38:13;0.90;;;0.60;;
12135;SDS011;6131;56.420;15.548;2022-09-02T05:40:39;1.10;;;0.90;;
12135;SDS011;6131;56.420;15.548;2022-09-02T05:43:05;1.10;;;0.90;;
12135;SDS011;6131;56.420;15.548;2022-09-02T05:45:31;2.40;;;0.83;;
12135;SDS011;6131;56.420;15.548;2022-09-02T05:47:58;1.87;;;0.70;;
12135;SDS011;6131;56.420;15.548;2022-09-02T05:50:44;1.20;;;0.70;;
12135;SDS011;6131;56.420;15.548;2022-09-02T05:53:10;1.37;;;0.60;;
12135;SDS011;6131;56.420;15.548;2022-09-02T05:55:36;1.40;;;0.70;;
12135;SDS011;6131;56.420;15.548;2022-09-02T05:58:02;1.70;;;0.70;;
12135;SDS011;6131;56.420;15.548;2022-09-02T06:00:28;2.10;;;0.70;;
12135;SDS011;6131;56.420;15.548;2022-09-02T06:02:54;4.07;;;0.80;;
12135;SDS011;6131;56.420;15.548;2022-09-02T06:05:20;1.10;;;0.70;;
12135;SDS011;6131;56.420;15.548;2022-09-02T06:07:46;1.40;;;0.70;;
12135;SDS011;6131;56.420;15.548;2022-09-02T06:10:13;1.10;;;0.80;;
12135;SDS011;6131;56.420;15.548;2022-09-02T06:12:39;1.33;;;0.80;;
12135;SDS011;6131;56.420;15.548;2022-09-02T06:15:06;0.60;;;0.57;;
12135;SDS011;6131;56.420;15.548;2022-09-02T06:17:32;1.17;;;0.70;;
12135;SDS011;6131;56.420;15.548;2022-09-02T06:19:58;1.27;;;0.67;;
12135;SDS011;6131;56.420;15.548;2022-09-02T06:22:24;0.73;;;0.70;;
12135;SDS011;6131;56.420;15.548;2022-09-02T06:24:50;1.20;;;0.73;;
12135;SDS011;6131;56.420;15.548;2022-09-02T06:27:16;2.10;;;0.83;;
12135;SDS011;6131;56.420;15.548;2022-09-02T06:29:42;0.60;;;0.60;;
12135;SDS011;6131;56.420;15.548;2022-09-02T06:32:09;0.97;;;0.73;;
12135;SDS011;6131;56.420;15.548;2022-09-02T06:34:35;0.80;;;0.60;;
12135;SDS011;6131;56.420;15.548;2022-09-02T06:37:03;1.33;;;0.60;;
12135;SDS011;6131;56.420;15.548;2022-09-02T06:39:29;0.80;;;0.60;;
12135;SDS011;6131;56.420;15.548;2022-09-02T06:41:55;1.43;;;0.57;;
12135;SDS011;6131;56.420;15.548;2022-09-02T06:44:21;0.80;;;0.70;;
12135;SDS011;6131;56.420;15.548;2022-09-02T06:46:52;1.37;;;0.80;;
12135;SDS011;6131;56.420;15.548;2022-09-02T06:49:18;1.07;;;0.50;;
12135;SDS011;6131;56.420;15.548;2022-09-02T06:51:45;1.07;;;0.67;;
12135;SDS011;6131;56.420;15.548;2022-09-02T06:54:16;0.60;;;0.57;;
12135;SDS011;6131;56.420;15.548;2022-09-02T06:56:43;1.23;;;0.57;;
12135;SDS011;6131;56.420;15.548;2022-09-02T06:59:09;1.73;;;0.60;;
12135;SDS011;6131;56.420;15.548;2022-09-02T07:01:35;1.00;;;0.70;;
12135;SDS011;6131;56.420;15.548;2022-09-02T07:04:02;0.70;;;0.50;;
12135;SDS011;6131;56.420;15.548;2022-09-02T07:06:49;0.60;;;0.60;;
12135;SDS011;6131;56.420;15.548;2022-09-02T07:09:20;1.87;;;0.70;;
12135;SDS011;6131;56.420;15.548;2022-09-02T07:11:47;0.67;;;0.60;;
12135;SDS011;6131;56.420;15.548;2022-09-02T07:14:14;0.80;;;0.60;;
12135;SDS011;6131;56.420;15.548;2022-09-02T07:16:45;1.27;;;0.60;;
12135;SDS011;6131;56.420;15.548;2022-09-02T07:19:11;3.10;;;0.70;;
12135;SDS011;6131;56.420;15.548;2022-09-02T07:21:37;1.00;;;0.67;;
12135;SDS011;6131;56.420;15.548;2022-09-02T07:24:05;0.70;;;0.50;;
12135;SDS011;6131;56.420;15.548;2022-09-02T07:26:32;0.60;;;0.50;;
12135;SDS011;6131;56.420;15.548;2022-09-02T07:28:58;1.67;;;0.60;;
12135;SDS011;6131;56.420;15.548;2022-09-02T07:31:25;0.60;;;0.47;;
12135;SDS011;6131;56.420;15.548;2022-09-02T07:33:53;0.90;;;0.70;;
12135;SDS011;6131;56.420;15.548;2022-09-02T07:36:22;0.73;;;0.70;;
12135;SDS011;6131;56.420;15.548;2022-09-02T07:38:49;0.60;;;0.60;;
12135;SDS011;6131;56.420;15.548;2022-09-02T07:41:15;1.20;;;0.60;;
12135;SDS011;6131;56.420;15.548;2022-09-02T07:43:41;0.50;;;0.43;;
12135;SDS011;6131;56.420;15.548;2022-09-02T07:46:07;1.17;;;0.60;;
12135;SDS011;6131;56.420;15.548;2022-09-02T07:48:33;0.50;;;0.50;;
12135;SDS011;6131;56.420;15.548;2022-09-02T07:51:00;1.03;;;0.50;;
12135;SDS011;6131;56.420;15.548;2022-09-02T07:53:26;1.07;;;0.70;;
12135;SDS011;6131;56.420;15.548;2022-09-02T07:55:52;1.20;;;0.53;;
12135;SDS011;6131;56.420;15.548;2022-09-02T07:58:19;0.73;;;0.60;;
12135;SDS011;6131;56.420;15.548;2022-09-02T08:00:46;1.00;;;0.43;;
12135;SDS011;6131;56.420;15.548;2022-09-02T08:03:13;1.23;;;0.43;;
12135;SDS011;6131;56.420;15.548;2022-09-02T08:05:39;1.10;;;0.50;;
12135;SDS011;6131;56.420;15.548;2022-09-02T08:08:06;1.07;;;0.40;;
12135;SDS011;6131;56.420;15.548;2022-09-02T08:10:33;1.30;;;0.50;;
12135;SDS011;6131;56.420;15.548;2022-09-02T08:12:59;1.80;;;0.60;;
12135;SDS011;6131;56.420;15.548;2022-09-02T08:15:26;0.83;;;0.47;;
12135;SDS011;6131;56.420;15.548;2022-09-02T08:17:53;0.87;;;0.50;;
12135;SDS011;6131;56.420;15.548;2022-09-02T08:20:19;0.53;;;0.40;;
12135;SDS011;6131;56.420;15.548;2022-09-02T08:22:46;1.33;;;0.47;;
12135;SDS011;6131;56.420;15.548;2022-09-02T08:25:12;1.03;;;0.50;;
12135;SDS011;6131;56.420;15.548;2022-09-02T08:27:40;0.70;;;0.50;;
12135;SDS011;6131;56.420;15.548;2022-09-02T08:30:06;0.50;;;0.50;;
12135;SDS011;6131;56.420;15.548;2022-09-02T08:32:36;1.23;;;0.53;;
12135;SDS011;6131;56.420;15.548;2022-09-02T08:35:03;0.60;;;0.60;;
12135;SDS011;6131;56.420;15.548;2022-09-02T08:37:30;0.90;;;0.60;;
12135;SDS011;6131;56.420;15.548;2022-09-02T08:39:56;1.33;;;0.50;;
12135;SDS011;6131;56.420;15.548;2022-09-02T08:44:55;1.03;;;0.63;;
12135;SDS011;6131;56.420;15.548;2022-09-02T08:47:24;1.43;;;0.40;;
12135;SDS011;6131;56.420;15.548;2022-09-02T08:49:54;0.63;;;0.60;;
12135;SDS011;6131;56.420;15.548;2022-09-02T08:52:27;0.60;;;0.50;;
12135;SDS011;6131;56.420;15.548;2022-09-02T08:54:54;0.77;;;0.40;;
12135;SDS011;6131;56.420;15.548;2022-09-02T08:57:21;1.03;;;0.40;;
12135;SDS011;6131;56.420;15.548;2022-09-02T08:59:51;0.60;;;0.40;;
12135;SDS011;6131;56.420;15.548;2022-09-02T09:02:26;0.87;;;0.40;;
12135;SDS011;6131;56.420;15.548;2022-09-02T09:07:31;0.77;;;0.57;;
12135;SDS011;6131;56.420;15.548;2022-09-02T09:12:47;1.43;;;0.33;;
12135;SDS011;6131;56.420;15.548;2022-09-02T09:18:07;0.93;;;0.50;;
12135;SDS011;6131;56.420;15.548;2022-09-02T09:21:05;0.60;;;0.30;;
12135;SDS011;6131;56.420;15.548;2022-09-02T09:23:32;0.60;;;0.40;;
12135;SDS011;6131;56.420;15.548;2022-09-02T09:26:22;0.50;;;0.30;;
12135;SDS011;6131;56.420;15.548;2022-09-02T09:28:46;0.87;;;0.20;;
12135;SDS011;6131;56.420;15.548;2022-09-02T09:31:16;0.40;;;0.30;;
12135;SDS011;6131;56.420;15.548;2022-09-02T09:39:22;0.67;;;0.40;;
12135;SDS011;6131;56.420;15.548;2022-09-02T09:41:49;0.60;;;0.40;;
12135;SDS011;6131;56.420;15.548;2022-09-02T09:47:07;1.13;;;0.60;;
12135;SDS011;6131;56.420;15.548;2022-09-02T09:49:34;0.50;;;0.30;;
12135;SDS011;6131;56.420;15.548;2022-09-02T09:52:00;0.60;;;0.30;;
12135;SDS011;6131;56.420;15.548;2022-09-02T09:54:26;6.77;;;0.80;;
12135;SDS011;6131;56.420;15.548;2022-09-02T09:56:54;1.42;;;0.50;;
12135;SDS011;6131;56.420;15.548;2022-09-02T09:59:54;4.32;;;0.52;;
12135;SDS011;6131;56.420;15.548;2022-09-02T10:02:24;1.30;;;0.40;;
12135;SDS011;6131;56.420;15.548;2022-09-02T10:04:51;0.60;;;0.40;;
12135;SDS011;6131;56.420;15.548;2022-09-02T10:10:18;0.40;;;0.30;;
12135;SDS011;6131;56.420;15.548;2022-09-02T10:12:45;0.60;;;0.40;;
12135;SDS011;6131;56.420;15.548;2022-09-02T10:15:11;1.07;;;0.37;;
12135;SDS011;6131;56.420;15.548;2022-09-02T10:22:49;0.60;;;0.40;;
12135;SDS011;6131;56.420;15.548;2022-09-02T10:30:23;0.63;;;0.50;;
12135;SDS011;6131;56.420;15.548;2022-09-02T10:40:25;2.45;;;0.52;;
12135;SDS011;6131;56.420;15.548;2022-09-02T10:43:04;0.55;;;0.50;;
12135;SDS011;6131;56.420;15.548;2022-09-02T10:45:37;0.97;;;0.30;;
12135;SDS011;6131;56.420;15.548;2022-09-02T10:56:07;0.50;;;0.50;;
12135;SDS011;6131;56.420;15.548;2022-09-02T11:01:19;0.80;;;0.40;;
12135;SDS011;6131;56.420;15.548;2022-09-02T11:06:23;1.00;;;0.50;;
12135;SDS011;6131;56.420;15.548;2022-09-02T11:08:51;0.50;;;0.32;;
12135;SDS011;6131;56.420;15.548;2022-09-02T11:11:19;0.70;;;0.40;;
12135;SDS011;6131;56.420;15.548;2022-09-02T11:16:21;0.60;;;0.40;;
12135;SDS011;6131;56.420;15.548;2022-09-02T11:24:04;0.60;;;0.50;;
12135;SDS011;6131;56.420;15.548;2022-09-02T11:26:39;0.55;;;0.50;;
12135;SDS011;6131;56.420;15.548;2022-09-02T11:37:06;1.33;;;0.57;;
12135;SDS011;6131;56.420;15.548;2022-09-02T11:39:39;0.60;;;0.30;;
12135;SDS011;6131;56.420;15.548;2022-09-02T11:42:14;0.50;;;0.38;;
12135;SDS011;6131;56.420;15.548;2022-09-02T11:53:25;0.70;;;0.40;;
12135;SDS011;6131;56.420;15.548;2022-09-02T11:55:35;0.50;;;0.40;;
12135;SDS011;6131;56.420;15.548;2022-09-02T11:58:02;0.85;;;0.50;;
12135;SDS011;6131;56.420;15.548;2022-09-02T12:00:32;2.08;;;0.45;;
12135;SDS011;6131;56.420;15.548;2022-09-02T12:11:21;1.60;;;0.50;;
12135;SDS011;6131;56.420;15.548;2022-09-02T12:18:44;0.70;;;0.50;;
12135;SDS011;6131;56.420;15.548;2022-09-02T12:21:11;0.80;;;0.47;;
12135;SDS011;6131;56.420;15.548;2022-09-02T12:26:19;1.70;;;0.40;;
12135;SDS011;6131;56.420;15.548;2022-09-02T12:28:45;0.60;;;0.50;;
12135;SDS011;6131;56.420;15.548;2022-09-02T12:33:40;0.60;;;0.40;;
12135;SDS011;6131;56.420;15.548;2022-09-02T12:36:08;0.67;;;0.43;;
12135;SDS011;6131;56.420;15.548;2022-09-02T12:38:38;1.73;;;0.40;;
12135;SDS011;6131;56.420;15.548;2022-09-02T12:43:33;0.53;;;0.40;;
12135;SDS011;6131;56.420;15.548;2022-09-02T12:49:00;0.67;;;0.47;;
12135;SDS011;6131;56.420;15.548;2022-09-02T12:54:14;0.63;;;0.50;;
12135;SDS011;6131;56.420;15.548;2022-09-02T12:56:46;0.93;;;0.40;;
12135;SDS011;6131;56.420;15.548;2022-09-02T12:59:36;1.07;;;0.60;;
12135;SDS011;6131;56.420;15.548;2022-09-02T13:04:55;0.60;;;0.40;;
12135;SDS011;6131;56.420;15.548;2022-09-02T13:07:33;0.60;;;0.40;;
12135;SDS011;6131;56.420;15.548;2022-09-02T13:31:24;0.40;;;0.30;;
12135;SDS011;6131;56.420;15.548;2022-09-02T13:33:58;0.63;;;0.40;;
12135;SDS011;6131;56.420;15.548;2022-09-02T13:36:29;0.67;;;0.40;;
12135;SDS011;6131;56.420;15.548;2022-09-02T13:39:08;1.90;;;0.53;;
12135;SDS011;6131;56.420;15.548;2022-09-02T13:41:34;1.25;;;0.30;;
12135;SDS011;6131;56.420;15.548;2022-09-02T13:44:19;1.80;;;0.43;;
12135;SDS011;6131;56.420;15.548;2022-09-02T13:46:47;0.70;;;0.50;;
12135;SDS011;6131;56.420;15.548;2022-09-02T13:49:21;1.07;;;0.40;;
12135;SDS011;6131;56.420;15.548;2022-09-02T13:51:48;0.50;;;0.37;;
12135;SDS011;6131;56.420;15.548;2022-09-02T13:54:21;1.20;;;0.40;;
12135;SDS011;6131;56.420;15.548;2022-09-02T13:56:49;0.80;;;0.60;;
12135;SDS011;6131;56.420;15.548;2022-09-02T13:59:29;0.82;;;0.50;;
12135;SDS011;6131;56.420;15.548;2022-09-02T14:01:55;0.90;;;0.50;;
12135;SDS011;6131;56.420;15.548;2022-09-02T14:04:21;0.80;;;0.40;;
12135;SDS011;6131;56.420;15.548;2022-09-02T14:06:48;0.50;;;0.40;;
12135;SDS011;6131;56.420;15.548;2022-09-02T14:09:18;0.83;;;0.50;;
12135;SDS011;6131;56.420;15.548;2022-09-02T14:11:45;1.40;;;0.90;;
12135;SDS011;6131;56.420;15.548;2022-09-02T14:14:12;1.13;;;0.50;;
12135;SDS011;6131;56.420;15.548;2022-09-02T14:16:39;0.83;;;0.50;;
12135;SDS011;6131;56.420;15.548;2022-09-02T14:19:06;0.60;;;0.50;;
12135;SDS011;6131;56.420;15.548;2022-09-02T14:21:33;0.50;;;0.30;;
12135;SDS011;6131;56.420;15.548;2022-09-02T14:23:59;0.77;;;0.43;;
12135;SDS011;6131;56.420;15.548;2022-09-02T14:26:36;1.33;;;0.63;;
12135;SDS011;6131;56.420;15.548;2022-09-02T14:29:06;1.25;;;0.50;;
12135;SDS011;6131;56.420;15.548;2022-09-02T14:31:33;0.68;;;0.50;;
12135;SDS011;6131;56.420;15.548;2022-09-02T14:34:00;0.40;;;0.40;;
12135;SDS011;6131;56.420;15.548;2022-09-02T14:36:33;0.70;;;0.43;;
12135;SDS011;6131;56.420;15.548;2022-09-02T14:39:08;1.80;;;0.50;;
12135;SDS011;6131;56.420;15.548;2022-09-02T14:41:35;1.57;;;0.37;;
12135;SDS011;6131;56.420;15.548;2022-09-02T14:44:10;0.93;;;0.63;;
12135;SDS011;6131;56.420;15.548;2022-09-02T14:46:42;0.93;;;0.47;;
12135;SDS011;6131;56.420;15.548;2022-09-02T14:49:18;1.97;;;0.40;;
12135;SDS011;6131;56.420;15.548;2022-09-02T14:51:46;0.53;;;0.40;;
12135;SDS011;6131;56.420;15.548;2022-09-02T14:54:32;0.50;;;0.40;;
12135;SDS011;6131;56.420;15.548;2022-09-02T14:56:59;0.68;;;0.50;;
12135;SDS011;6131;56.420;15.548;2022-09-02T14:59:26;1.10;;;0.50;;
12135;SDS011;6131;56.420;15.548;2022-09-02T15:01:52;0.50;;;0.37;;
12135;SDS011;6131;56.420;15.548;2022-09-02T15:04:26;1.03;;;0.50;;
12135;SDS011;6131;56.420;15.548;2022-09-02T15:06:52;2.30;;;0.40;;
12135;SDS011;6131;56.420;15.548;2022-09-02T15:09:18;1.03;;;0.50;;
12135;SDS011;6131;56.420;15.548;2022-09-02T15:11:47;0.73;;;0.50;;
12135;SDS011;6131;56.420;15.548;2022-09-02T15:14:19;0.88;;;0.45;;
12135;SDS011;6131;56.420;15.548;2022-09-02T15:16:47;0.90;;;0.50;;
12135;SDS011;6131;56.420;15.548;2022-09-02T15:19:13;0.70;;;0.53;;
12135;SDS011;6131;56.420;15.548;2022-09-02T15:22:08;0.70;;;0.50;;
12135;SDS011;6131;56.420;15.548;2022-09-02T15:24:34;2.23;;;0.40;;
12135;SDS011;6131;56.420;15.548;2022-09-02T15:27:00;0.43;;;0.40;;
12135;SDS011;6131;56.420;15.548;2022-09-02T15:29:26;1.23;;;0.43;;
12135;SDS011;6131;56.420;15.548;2022-09-02T15:31:52;0.83;;;0.40;;
12135;SDS011;6131;56.420;15.548;2022-09-02T15:34:21;1.02;;;0.40;;
12135;SDS011;6131;56.420;15.548;2022-09-02T15:36:48;1.42;;;0.50;;
12135;SDS011;6131;56.420;15.548;2022-09-02T15:39:14;0.95;;;0.40;;
12135;SDS011;6131;56.420;15.548;2022-09-02T15:41:53;0.60;;;0.32;;
12135;SDS011;6131;56.420;15.548;2022-09-02T15:44:20;1.10;;;0.50;;
12135;SDS011;6131;56.420;15.548;2022-09-02T15:46:47;1.02;;;0.50;;
12135;SDS011;6131;56.420;15.548;2022-09-02T15:49:17;1.42;;;0.50;;
12135;SDS011;6131;56.420;15.548;2022-09-02T15:51:52;1.20;;;0.40;;
12135;SDS011;6131;56.420;15.548;2022-09-02T15:54:18;0.80;;;0.50;;
12135;SDS011;6131;56.420;15.548;2022-09-02T15:56:45;0.90;;;0.57;;
12135;SDS011;6131;56.420;15.548;2022-09-02T15:59:16;1.02;;;0.40;;
12135;SDS011;6131;56.420;15.548;2022-09-02T16:01:46;0.50;;;0.40;;
12135;SDS011;6131;56.420;15.548;2022-09-02T16:04:12;1.65;;;0.50;;
12135;SDS011;6131;56.420;15.548;2022-09-02T16:06:39;0.90;;;0.47;;
12135;SDS011;6131;56.420;15.548;2022-09-02T16:09:06;0.53;;;0.40;;
12135;SDS011;6131;56.420;15.548;2022-09-02T16:11:32;0.77;;;0.40;;
12135;SDS011;6131;56.420;15.548;2022-09-02T16:14:01;1.50;;;0.57;;
12135;SDS011;6131;56.420;15.548;2022-09-02T16:16:31;0.50;;;0.40;;
12135;SDS011;6131;56.420;15.548;2022-09-02T16:19:09;1.17;;;0.47;;
12135;SDS011;6131;56.420;15.548;2022-09-02T16:21:35;2.00;;;0.67;;
12135;SDS011;6131;56.420;15.548;2022-09-02T16:24:05;0.60;;;0.23;;
12135;SDS011;6131;56.420;15.548;2022-09-02T16:26:36;1.83;;;0.60;;
12135;SDS011;6131;56.420;15.548;2022-09-02T16:29:03;1.17;;;0.40;;
12135;SDS011;6131;56.420;15.548;2022-09-02T16:31:30;0.97;;;0.43;;
12135;SDS011;6131;56.420;15.548;2022-09-02T16:36:24;1.33;;;0.40;;
12135;SDS011;6131;56.420;15.548;2022-09-02T16:38:50;0.63;;;0.40;;
12135;SDS011;6131;56.420;15.548;2022-09-02T16:41:29;1.23;;;0.50;;
12135;SDS011;6131;56.420;15.548;2022-09-02T16:43:58;0.60;;;0.40;;
12135;SDS011;6131;56.420;15.548;2022-09-02T16:46:25;0.77;;;0.50;;
12135;SDS011;6131;56.420;15.548;2022-09-02T16:48:52;1.03;;;0.40;;
12135;SDS011;6131;56.420;15.548;2022-09-02T16:51:19;0.87;;;0.43;;
12135;SDS011;6131;56.420;15.548;2022-09-02T16:53:45;1.07;;;0.50;;
12135;SDS011;6131;56.420;15.548;2022-09-02T16:56:12;0.60;;;0.40;;
12135;SDS011;6131;56.420;15.548;2022-09-02T16:58:38;0.70;;;0.50;;
12135;SDS011;6131;56.420;15.548;2022-09-02T17:01:05;0.67;;;0.47;;
12135;SDS011;6131;56.420;15.548;2022-09-02T17:03:31;0.80;;;0.70;;
12135;SDS011;6131;56.420;15.548;2022-09-02T17:05:58;0.70;;;0.63;;